createdAt,value
2022-12-08T00:02:05.145Z,-8.96
2022-12-08T00:05:28.253Z,-8.97
2022-12-08T00:08:49.850Z,-9.08
2022-12-08T00:12:17.301Z,-9.20
2022-12-08T00:15:20.381Z,-9.29
2022-12-08T00:18:23.452Z,-9.35
2022-12-08T00:21:26.512Z,-9.39
2022-12-08T00:24:35.559Z,-9.39
2022-12-08T00:27:38.668Z,-9.40
2022-12-08T00:30:42.283Z,-9.43
2022-12-08T00:33:45.419Z,-9.42
2022-12-08T00:36:49.081Z,-9.44
2022-12-08T00:39:52.163Z,-9.45
2022-12-08T00:42:55.267Z,-9.45
2022-12-08T00:45:58.420Z,-9.41
2022-12-08T00:49:01.539Z,-9.43
2022-12-08T00:52:04.789Z,-9.41
2022-12-08T00:55:08.171Z,-9.35
2022-12-08T00:58:11.234Z,-9.39
2022-12-08T01:01:15.515Z,-9.40
2022-12-08T01:04:20.072Z,-9.39
2022-12-08T01:07:22.810Z,-9.30
2022-12-08T01:10:25.922Z,-9.31
2022-12-08T01:13:29.425Z,-9.30
2022-12-08T01:16:34.856Z,-9.28
2022-12-08T01:19:38.667Z,-9.26
2022-12-08T01:22:41.715Z,-9.21
2022-12-08T01:25:45.040Z,-9.16
2022-12-08T01:28:48.862Z,-9.06
2022-12-08T01:31:52.966Z,-9.03
2022-12-08T01:34:56.077Z,-8.97
2022-12-08T01:37:59.163Z,-8.89
2022-12-08T01:41:02.659Z,-8.84
2022-12-08T01:44:11.521Z,-8.77
2022-12-08T01:47:14.647Z,-8.68
2022-12-08T01:50:20.207Z,-8.61
2022-12-08T01:53:27.553Z,-8.59
2022-12-08T01:56:50.501Z,-8.51
2022-12-08T02:00:12.044Z,-8.39
2022-12-08T02:03:20.955Z,-8.34
2022-12-08T02:06:24.622Z,-8.29
2022-12-08T02:09:27.732Z,-8.23
2022-12-08T02:12:30.961Z,-8.20
2022-12-08T02:15:42.755Z,-8.17
2022-12-08T02:19:34.537Z,-8.15
2022-12-08T02:23:01.471Z,-8.13
2022-12-08T02:26:18.132Z,-8.09
2022-12-08T02:29:42.720Z,-8.01
2022-12-08T02:33:00.772Z,-7.92
2022-12-08T02:36:15.777Z,-7.87
2022-12-08T02:39:26.027Z,-7.76
2022-12-08T02:42:35.975Z,-7.74
2022-12-08T02:45:53.987Z,-7.66
2022-12-08T02:48:58.250Z,-7.62
2022-12-08T02:52:13.113Z,-7.66
2022-12-08T02:55:20.134Z,-7.66
2022-12-08T02:59:13.588Z,-7.70
2022-12-08T03:02:19.890Z,-7.84
2022-12-08T03:05:34.919Z,-7.91
2022-12-08T03:08:56.642Z,-8.00
2022-12-08T03:12:26.093Z,-8.01
2022-12-08T03:15:32.459Z,-7.94
2022-12-08T03:18:40.406Z,-7.81
2022-12-08T03:21:46.386Z,-7.73
2022-12-08T03:24:50.359Z,-7.60
2022-12-08T03:27:54.631Z,-7.42
2022-12-08T03:31:01.170Z,-7.34
2022-12-08T03:34:06.363Z,-7.21
2022-12-08T03:37:09.631Z,-7.14
2022-12-08T03:40:16.055Z,-7.09
2022-12-08T03:43:19.106Z,-6.93
2022-12-08T03:49:26.343Z,-6.77
2022-12-08T03:52:29.398Z,-6.73
2022-12-08T03:55:32.649Z,-6.59
2022-12-08T03:58:37.596Z,-6.60
2022-12-08T04:01:40.814Z,-6.57
2022-12-08T04:04:44.089Z,-6.57
2022-12-08T04:07:47.146Z,-6.56
2022-12-08T04:10:50.186Z,-6.59
2022-12-08T04:13:53.333Z,-6.63
2022-12-08T04:16:56.470Z,-6.63
2022-12-08T04:19:59.625Z,-6.71
2022-12-08T04:23:02.656Z,-6.69
2022-12-08T04:26:06.499Z,-6.64
2022-12-08T04:29:09.607Z,-6.58
2022-12-08T04:32:12.818Z,-6.40
2022-12-08T04:35:15.899Z,-6.24
2022-12-08T04:38:19.050Z,-6.10
2022-12-08T04:41:22.221Z,-5.92
2022-12-08T04:44:25.356Z,-5.76
2022-12-08T04:47:28.444Z,-5.55
2022-12-08T04:50:31.513Z,-5.36
2022-12-08T04:53:34.688Z,-5.23
2022-12-08T04:56:38.148Z,-5.17
2022-12-08T04:59:41.595Z,-5.16
2022-12-08T05:02:44.736Z,-5.14
2022-12-08T05:05:48.111Z,-5.12
2022-12-08T05:08:51.226Z,-5.05
2022-12-08T05:11:54.497Z,-5.06
2022-12-08T05:14:57.882Z,-5.10
2022-12-08T05:18:00.921Z,-5.23
2022-12-08T05:21:05.468Z,-5.38
2022-12-08T05:24:08.663Z,-5.39
2022-12-08T05:27:12.067Z,-5.33
2022-12-08T05:30:15.207Z,-5.36
2022-12-08T05:33:18.279Z,-5.35
2022-12-08T05:36:21.692Z,-5.36
2022-12-08T05:39:24.847Z,-5.32
2022-12-08T05:42:28.410Z,-5.29
2022-12-08T05:45:31.563Z,-5.26
2022-12-08T05:48:35.124Z,-5.34
2022-12-08T05:51:38.219Z,-5.40
2022-12-08T05:54:41.309Z,-5.41
2022-12-08T05:57:44.457Z,-5.41
2022-12-08T06:00:48.370Z,-5.43
2022-12-08T06:03:52.089Z,-5.45
2022-12-08T06:06:55.209Z,-5.54
2022-12-08T06:09:58.300Z,-5.60
2022-12-08T06:13:01.684Z,-5.64
2022-12-08T06:16:08.341Z,-5.73
2022-12-08T06:19:11.407Z,-5.80
2022-12-08T06:22:14.516Z,-5.88
2022-12-08T06:25:17.652Z,-5.96
2022-12-08T06:28:20.722Z,-5.97
2022-12-08T06:31:27.813Z,-6.04
2022-12-08T06:34:30.871Z,-6.11
2022-12-08T06:37:34.146Z,-6.17
2022-12-08T06:40:37.251Z,-6.26
2022-12-08T06:43:41.563Z,-6.34
2022-12-08T06:46:44.791Z,-6.40
2022-12-08T06:49:47.838Z,-6.46
2022-12-08T06:53:02.779Z,-6.56
2022-12-08T06:56:08.973Z,-6.63
2022-12-08T06:59:12.051Z,-6.75
2022-12-08T07:02:15.166Z,-6.82
2022-12-08T07:05:18.315Z,-6.88
2022-12-08T07:08:21.481Z,-6.96
2022-12-08T07:11:24.684Z,-7.02
2022-12-08T07:14:27.870Z,-7.10
2022-12-08T07:17:30.928Z,-7.05
2022-12-08T07:20:34.097Z,-6.88
2022-12-08T07:23:37.784Z,-6.77
2022-12-08T07:26:42.388Z,-6.77
2022-12-08T07:29:45.450Z,-6.89
2022-12-08T07:32:48.514Z,-6.95
2022-12-08T07:36:06.465Z,-7.06
2022-12-08T07:39:10.221Z,-7.13
2022-12-08T07:42:13.284Z,-7.29
2022-12-08T07:45:16.526Z,-7.38
2022-12-08T07:48:20.058Z,-7.45
2022-12-08T07:51:23.656Z,-7.50
2022-12-08T07:54:26.900Z,-7.55
2022-12-08T07:57:29.999Z,-7.60
2022-12-08T08:00:33.126Z,-7.63
2022-12-08T08:03:36.232Z,-7.66
2022-12-08T08:06:39.442Z,-7.68
2022-12-08T08:09:42.588Z,-7.70
2022-12-08T08:12:45.705Z,-7.73
2022-12-08T08:15:48.884Z,-7.76
2022-12-08T08:18:52.754Z,-7.84
2022-12-08T08:21:56.417Z,-7.95
2022-12-08T08:24:59.624Z,-8.01
2022-12-08T08:28:02.842Z,-8.10
2022-12-08T08:31:07.823Z,-8.14
2022-12-08T08:34:11.038Z,-8.20
2022-12-08T08:37:14.199Z,-8.17
2022-12-08T08:40:18.609Z,-8.12
2022-12-08T08:43:37.568Z,-8.14
2022-12-08T08:46:41.750Z,-8.14
2022-12-08T08:49:44.971Z,-8.19
2022-12-08T08:52:48.153Z,-8.16
2022-12-08T08:55:52.404Z,-8.14
2022-12-08T08:58:55.720Z,-8.22
2022-12-08T09:01:59.012Z,-8.30
2022-12-08T09:05:02.191Z,-8.38
2022-12-08T09:08:05.690Z,-8.42
2022-12-08T09:11:09.357Z,-8.50
2022-12-08T09:14:15.328Z,-8.55
2022-12-08T09:17:18.533Z,-8.59
2022-12-08T09:20:21.643Z,-8.63
2022-12-08T09:23:24.782Z,-8.68
2022-12-08T09:26:29.068Z,-8.74
2022-12-08T09:29:35.956Z,-8.78
2022-12-08T09:32:39.414Z,-8.81
2022-12-08T09:35:42.520Z,-8.85
2022-12-08T09:38:47.233Z,-8.89
2022-12-08T09:41:51.851Z,-8.91
2022-12-08T09:45:13.426Z,-8.91
2022-12-08T09:48:19.968Z,-8.93
2022-12-08T09:51:26.392Z,-8.93
2022-12-08T09:54:38.469Z,-8.96
2022-12-08T09:57:41.555Z,-8.97
2022-12-08T10:00:45.029Z,-8.98
2022-12-08T10:03:49.190Z,-9.01
2022-12-08T10:07:00.171Z,-9.03
2022-12-08T10:10:17.046Z,-9.04
2022-12-08T10:13:34.358Z,-9.04
2022-12-08T10:16:43.176Z,-9.07
2022-12-08T10:19:47.718Z,-9.10
2022-12-08T10:22:52.945Z,-9.09
2022-12-08T10:26:01.331Z,-9.14
2022-12-08T10:29:04.507Z,-9.20
2022-12-08T10:32:18.841Z,-9.20
2022-12-08T10:35:23.711Z,-9.20
2022-12-08T10:38:33.807Z,-9.18
2022-12-08T10:41:37.076Z,-9.19
2022-12-08T10:45:22.840Z,-9.18
2022-12-08T10:48:31.764Z,-9.19
2022-12-08T10:51:34.764Z,-9.17
2022-12-08T10:54:38.934Z,-9.16
2022-12-08T10:57:42.244Z,-9.17
2022-12-08T11:00:45.510Z,-9.18
2022-12-08T11:04:03.623Z,-9.19
2022-12-08T11:07:10.025Z,-9.24
2022-12-08T11:10:19.384Z,-9.34
2022-12-08T11:13:26.807Z,-9.24
2022-12-08T11:16:30.052Z,-9.27
2022-12-08T11:19:38.994Z,-9.28
2022-12-08T11:22:55.743Z,-9.30
2022-12-08T11:26:04.888Z,-9.28
2022-12-08T11:29:13.410Z,-9.33
2022-12-08T11:32:16.544Z,-9.30
2022-12-08T11:35:33.650Z,-9.34
2022-12-08T11:38:42.413Z,-9.34
2022-12-08T11:41:48.268Z,-9.35
2022-12-08T11:45:06.224Z,-9.35
2022-12-08T11:48:14.736Z,-9.33
2022-12-08T11:51:24.290Z,-9.31
2022-12-08T11:54:37.552Z,-9.28
2022-12-08T11:57:40.594Z,-9.29
2022-12-08T12:00:43.722Z,-9.27
2022-12-08T12:03:56.456Z,-9.27
2022-12-08T12:07:08.341Z,-9.30
2022-12-08T12:10:23.386Z,-9.31
2022-12-08T12:13:41.802Z,-9.29
2022-12-08T12:16:50.591Z,-9.30
2022-12-08T12:19:56.543Z,-9.29
2022-12-08T12:23:13.556Z,-9.29
2022-12-08T12:26:37.716Z,-9.31
2022-12-08T12:29:52.257Z,-9.30
2022-12-08T12:33:02.510Z,-9.33
2022-12-08T12:36:08.619Z,-9.35
2022-12-08T12:39:14.616Z,-9.32
2022-12-08T12:42:40.744Z,-9.30
2022-12-08T12:45:46.268Z,-9.31
2022-12-08T12:48:49.639Z,-9.35
2022-12-08T12:51:56.390Z,-9.37
2022-12-08T12:54:59.396Z,-9.40
2022-12-08T12:58:20.383Z,-9.41
2022-12-08T13:01:23.577Z,-9.40
2022-12-08T13:04:33.928Z,-9.40
2022-12-08T13:07:54.034Z,-9.42
2022-12-08T13:11:12.037Z,-9.43
2022-12-08T13:14:29.084Z,-9.43
2022-12-08T13:17:36.177Z,-9.43
2022-12-08T13:20:51.424Z,-9.43
2022-12-08T13:24:20.495Z,-9.44
2022-12-08T13:27:33.912Z,-9.48
2022-12-08T13:30:48.765Z,-9.49
2022-12-08T13:33:51.710Z,-9.45
2022-12-08T13:37:12.799Z,-9.48
2022-12-08T13:40:17.969Z,-9.50
2022-12-08T13:43:57.780Z,-9.52
2022-12-08T13:57:49.735Z,-9.56
2022-12-08T14:01:05.410Z,-9.59
2022-12-08T14:04:42.661Z,-9.59
2022-12-08T14:07:43.773Z,-9.64
2022-12-08T14:10:53.067Z,-9.63
2022-12-08T14:13:56.344Z,-9.67
2022-12-08T14:17:03.998Z,-9.68
2022-12-08T14:20:12.912Z,-9.70
2022-12-08T14:23:18.226Z,-9.70
2022-12-08T14:26:21.258Z,-9.72
2022-12-08T14:29:39.611Z,-9.68
2022-12-08T14:32:54.971Z,-9.72
2022-12-08T14:35:58.708Z,-9.73
2022-12-08T14:39:01.878Z,-9.74
2022-12-08T14:42:07.373Z,-9.77
2022-12-08T14:45:13.972Z,-9.81
2022-12-08T14:48:32.246Z,-9.84
2022-12-08T14:51:35.562Z,-9.88
2022-12-08T14:54:40.919Z,-9.92
2022-12-08T14:57:44.199Z,-9.93
2022-12-08T15:00:49.671Z,-9.94
2022-12-08T15:03:53.028Z,-9.95
2022-12-08T15:07:22.488Z,-9.94
2022-12-08T15:10:28.121Z,-9.94
2022-12-08T15:13:31.264Z,-9.95
2022-12-08T15:16:44.381Z,-10.00
2022-12-08T15:19:57.310Z,-10.02
2022-12-08T15:23:00.534Z,-10.05
2022-12-08T15:26:06.190Z,-10.04
2022-12-08T15:29:21.522Z,-10.07
2022-12-08T15:32:24.832Z,-10.09
2022-12-08T15:35:28.343Z,-10.13
2022-12-08T15:38:31.444Z,-10.16
2022-12-08T15:41:34.583Z,-10.20
2022-12-08T15:44:37.722Z,-10.18
2022-12-08T15:47:42.231Z,-10.19
2022-12-08T15:50:45.106Z,-10.16
2022-12-08T15:53:48.220Z,-10.18
2022-12-08T15:57:18.640Z,-10.20
2022-12-08T16:00:51.339Z,-10.20
2022-12-08T16:07:23.104Z,-10.18
2022-12-08T16:10:35.388Z,-10.20
2022-12-08T16:14:04.261Z,-10.21
2022-12-08T16:17:18.648Z,-10.20
2022-12-08T16:20:28.181Z,-10.23
2022-12-08T16:23:44.075Z,-10.27
2022-12-08T16:30:17.822Z,-10.33
2022-12-08T16:33:21.770Z,-10.35
2022-12-08T16:36:24.948Z,-10.34
2022-12-08T16:39:28.163Z,-10.34
2022-12-08T16:42:44.049Z,-10.35
2022-12-08T16:45:47.130Z,-10.35
2022-12-08T16:48:50.768Z,-10.36
2022-12-08T16:51:53.918Z,-10.39
2022-12-08T16:54:56.940Z,-10.42
2022-12-08T16:58:00.067Z,-10.45
2022-12-08T17:01:03.122Z,-10.43
2022-12-08T17:07:29.524Z,-10.46
2022-12-08T17:10:35.150Z,-10.53
2022-12-08T17:13:41.359Z,-10.56
2022-12-08T17:16:45.663Z,-10.58
2022-12-08T17:19:48.547Z,-10.59
2022-12-08T17:22:54.534Z,-10.62
2022-12-08T17:26:01.624Z,-10.61
2022-12-08T17:29:05.567Z,-10.65
2022-12-08T17:32:08.832Z,-10.69
2022-12-08T17:35:12.472Z,-10.70
2022-12-08T17:38:16.125Z,-10.69
2022-12-08T17:41:19.212Z,-10.68
2022-12-08T17:44:22.506Z,-10.73
2022-12-08T17:47:25.621Z,-10.73
2022-12-08T17:50:28.656Z,-10.74
2022-12-08T17:53:35.888Z,-10.77
2022-12-08T17:56:40.543Z,-10.80
2022-12-08T17:59:43.549Z,-10.81
2022-12-08T18:02:46.745Z,-10.81
2022-12-08T18:05:50.121Z,-10.80
2022-12-08T18:08:53.471Z,-10.80
2022-12-08T18:11:56.693Z,-10.81
2022-12-08T18:14:59.804Z,-10.82
2022-12-08T18:18:02.779Z,-10.82
2022-12-08T18:21:06.048Z,-10.82
2022-12-08T18:24:14.158Z,-10.85
2022-12-08T18:27:17.211Z,-10.84
2022-12-08T18:30:20.437Z,-10.84
2022-12-08T18:33:23.540Z,-10.88
2022-12-08T18:36:27.153Z,-10.92
2022-12-08T18:39:33.018Z,-10.94
2022-12-08T18:42:36.278Z,-10.92
2022-12-08T18:45:40.364Z,-10.87
2022-12-08T18:48:47.829Z,-10.88
2022-12-08T18:51:50.926Z,-10.87
2022-12-08T18:55:09.825Z,-10.86
2022-12-08T18:58:14.972Z,-10.89
2022-12-08T19:01:18.223Z,-10.91
2022-12-08T19:04:29.256Z,-10.90
2022-12-08T19:07:32.690Z,-10.83
2022-12-08T19:10:38.802Z,-10.82
2022-12-08T19:13:42.022Z,-10.82
2022-12-08T19:16:45.515Z,-10.84
2022-12-08T19:19:48.753Z,-10.86
2022-12-08T19:22:51.951Z,-10.91
2022-12-08T19:25:55.051Z,-10.89
2022-12-08T19:28:58.938Z,-10.82
2022-12-08T19:32:02.132Z,-10.73
2022-12-08T19:35:07.901Z,-10.65
2022-12-08T19:38:11.042Z,-10.62
2022-12-08T19:41:32.699Z,-10.61
2022-12-08T19:44:53.809Z,-10.57
2022-12-08T19:47:56.913Z,-10.54
2022-12-08T19:51:00.937Z,-10.55
2022-12-08T19:54:04.839Z,-10.56
2022-12-08T19:57:07.987Z,-10.57
2022-12-08T20:00:13.524Z,-10.57
2022-12-08T20:03:18.594Z,-10.55
2022-12-08T20:06:22.256Z,-10.64
2022-12-08T20:09:25.989Z,-10.71
2022-12-08T20:12:29.132Z,-10.72
2022-12-08T20:15:32.325Z,-10.76
2022-12-08T20:18:37.073Z,-10.75
2022-12-08T20:21:40.852Z,-10.78
2022-12-08T20:24:43.934Z,-10.83
2022-12-08T20:27:47.057Z,-10.84
2022-12-08T20:30:50.556Z,-10.88
2022-12-08T20:33:54.680Z,-10.91
2022-12-08T20:36:57.857Z,-10.91
2022-12-08T20:40:00.999Z,-10.93
2022-12-08T20:43:04.125Z,-10.93
2022-12-08T20:46:12.674Z,-10.95
2022-12-08T20:49:15.872Z,-10.94
2022-12-08T20:52:19.063Z,-10.94
2022-12-08T20:55:22.268Z,-10.92
2022-12-08T20:58:25.349Z,-10.94
2022-12-08T21:01:29.387Z,-10.91
2022-12-08T21:04:32.799Z,-10.84
2022-12-08T21:07:36.051Z,-10.77
2022-12-08T21:10:43.678Z,-10.72
2022-12-08T21:13:47.596Z,-10.73
2022-12-08T21:16:51.519Z,-10.78
2022-12-08T21:19:54.879Z,-10.81
2022-12-08T21:22:57.986Z,-10.87
2022-12-08T21:26:01.242Z,-10.88
2022-12-08T21:29:05.428Z,-10.93
2022-12-08T21:32:08.938Z,-10.92
2022-12-08T21:35:12.467Z,-10.95
2022-12-08T21:38:15.785Z,-10.99
2022-12-08T21:41:42.562Z,-10.96
2022-12-08T21:44:45.684Z,-10.98
2022-12-08T21:47:50.002Z,-10.98
2022-12-08T21:50:54.094Z,-10.93
2022-12-08T21:53:57.641Z,-10.94
2022-12-08T21:57:00.803Z,-10.98
2022-12-08T22:00:05.074Z,-10.99
2022-12-08T22:03:14.626Z,-11.00
2022-12-08T22:06:18.375Z,-11.05
2022-12-08T22:09:21.712Z,-11.07
2022-12-08T22:12:24.876Z,-11.11
2022-12-08T22:15:30.324Z,-11.16
2022-12-08T22:18:33.819Z,-11.17
2022-12-08T22:21:38.809Z,-11.14
2022-12-08T22:24:42.053Z,-11.12
2022-12-08T22:27:45.215Z,-11.12
2022-12-08T22:30:48.600Z,-11.10
2022-12-08T22:33:51.987Z,-11.06
2022-12-08T22:36:55.281Z,-11.07
2022-12-08T22:39:58.322Z,-11.09
2022-12-08T22:43:01.670Z,-11.07
2022-12-08T22:46:15.753Z,-11.06
2022-12-08T22:49:18.900Z,-11.11
2022-12-08T22:52:22.082Z,-11.16
2022-12-08T22:55:25.138Z,-11.15
2022-12-08T22:58:29.818Z,-11.15
2022-12-08T23:01:34.135Z,-11.17
2022-12-08T23:04:37.469Z,-11.17
2022-12-08T23:07:41.221Z,-11.19
2022-12-08T23:10:45.224Z,-11.21
2022-12-08T23:13:49.038Z,-11.20
2022-12-08T23:16:52.290Z,-11.14
2022-12-08T23:19:55.438Z,-11.11
2022-12-08T23:22:58.813Z,-11.09
2022-12-08T23:26:02.245Z,-11.11
2022-12-08T23:29:05.965Z,-11.10
2022-12-08T23:32:09.161Z,-11.13
2022-12-08T23:35:12.350Z,-11.13
2022-12-08T23:38:15.557Z,-11.15
2022-12-08T23:41:18.942Z,-11.16
2022-12-08T23:44:22.045Z,-11.21
2022-12-08T23:47:25.351Z,-11.21
2022-12-08T23:50:28.501Z,-11.24
2022-12-08T23:53:32.156Z,-11.28
2022-12-08T23:56:35.439Z,-11.30
2022-12-08T23:59:38.711Z,-11.30
